Fincastle, Texas
Current Conditions -  °F | °C
As of 11:35 PM on Sunday 21 Dec 2014 (Local Time) from KPSN Reporting Station
Overcast Overcast  
Wind Chill: 52°   Ceiling: 3000
Heat Index: 52°   Visibility: 10mi
Dew Point: 49°   Wind: 5mph
Humidity: 90%   Direction: 150°SSE
Pressure: 29.85"   Gusts: NA
Location:  32.0056°N, 95.5543°W
Report Text: KPSN 220535Z AUTO 15004KT 10SM SCT024 BKN030 OVC035 11/09 A2985 RMK AO2 T01110096
Loading
Personal Weather Stations






























Interactive Weather Map New forecast layout! Learn more

10-Day Weather Forecast

Advertisements
Track Severe Weather on mobile